M I D A S
Marine Information and Data Acquisition System
Tripno 2035 of the Zeeleeuw from 2011-01-20 09:15:52 to 2011-01-20 16:41:53
Back to CruiseResearch ActivitiesStationsMapUnderway DataData graphs

EquipmentUnitsComment
TimeDGPSUTC
LatitudeDGPSDM.mWGS84
LongitudeDGPSDM.mWGS84
TemperatureSBE03/SBE38deg celciusITS90
ConductivitySBE21S/mITS90
SalinitySBE21 Practical Salinity Units
ChlorophylAChelsea fluorimeterg/lCalibrated in Aceton
Missing or incorrect values are displayed as -999
Sea surface data collected by the RV Zeeleeuw from 2011-01-20 09:16:14 to 2011-01-20 16:46:21
Time Latitude Longitude Temperature Conductivity Salinity ChlorophylA
2011-01-20 09:17:24 51°13.677 2°55.883 15.3067 0.018772 0.100379 -0.408559
2011-01-20 09:18:24 51°13.691 2°55.786 15.3095 0.018668 0.099859 -0.373735
2011-01-20 09:19:24 51°13.691 2°55.736 15.3269 0.018668 0.099875 -0.373735
2011-01-20 09:20:24 51°13.7 2°55.739 15.2473 0.018668 0.099899 -0.408559
2011-01-20 09:21:23 51°13.693 2°55.721 15.4073 0.018668 0.099919 -0.373735
2011-01-20 09:22:22 51°13.779 2°55.662 15.1873 0.018668 0.099948 -0.373735
2011-01-20 09:23:21 51°13.916 2°55.567 15.1674 0.018668 0.099971 -0.373735
2011-01-20 09:24:24 51°14.069 2°55.458 15.2642 0.018668 0.099998 -0.408559
2011-01-20 09:25:23 51°14.211 2°55.342 15.1374 0.018668 0.100019 -0.338911
2011-01-20 09:26:22 51°14.352 2°55.203 15.1221 0.018668 0.10004 -0.373735
2011-01-20 09:27:22 51°14.508 2°55.041 14.9866 0.018668 0.100065 -0.373735
2011-01-20 09:28:20 51°14.677 2°54.869 14.9975 0.018668 0.100088 -0.373735
2011-01-20 09:29:20 51°14.869 2°54.75 14.9652 0.018668 0.100119 -0.373735
2011-01-20 09:30:20 51°15.066 2°54.694 14.9716 0.018668 0.100141 -0.373735
2011-01-20 09:31:20 51°15.25 2°54.556 14.9735 0.018668 0.100171 -0.373735
2011-01-20 09:32:20 51°15.425 2°54.374 14.9461 0.018668 0.100199 -0.338911
2011-01-20 09:33:20 51°15.597 2°54.186 14.962 0.018668 0.100214 -0.373735
2011-01-20 09:34:20 51°15.769 2°53.998 6.7433 3.602495 32.307729 -0.060319
2011-01-20 09:35:20 51°15.941 2°53.811 6.4394 3.360162 32.852291 -0.095143
2011-01-20 09:36:20 51°16.109 2°53.618 6.3208 3.322959 32.901165 -0.060319
2011-01-20 09:37:20 51°16.274 2°53.418 6.2767 3.313686 32.915723 -0.025495
2011-01-20 09:38:20 51°16.44 2°53.222 6.2241 3.29208 32.777783 -0.129967
2011-01-20 09:39:20 51°16.607 2°53.039 6.0957 3.261833 32.508516 -0.164791
2011-01-20 09:40:20 51°16.776 2°52.87 5.9862 3.216097 32.1209 -0.025495
2011-01-20 09:41:20 51°16.946 2°52.705 5.8225 3.179321 31.830022 -0.025495
2011-01-20 09:42:20 51°17.122 2°52.548 5.7368 3.113467 31.249174 -0.025495
2011-01-20 09:43:20 51°17.295 2°52.396 5.7163 3.094713 31.121827 0.148626
2011-01-20 09:44:20 51°17.47 2°52.243 5.7218 3.088919 31.095476 -0.095143
2011-01-20 09:45:20 51°17.645 2°52.085 5.7553 3.102405 31.233686 0.009329
2011-01-20 09:46:20 51°17.818 2°51.927 5.8108 3.124531 31.44085 0.044153
2011-01-20 09:47:20 51°17.994 2°51.779 5.8484 3.141073 31.57998 0.078977
2011-01-20 09:48:20 51°18.17 2°51.627 5.8816 3.156351 31.722556 0.148626
2011-01-20 09:49:20 51°18.346 2°51.47 5.9052 3.167099 31.819475 0.113802
2011-01-20 09:50:20 51°18.519 2°51.308 5.916 3.178585 31.921276 0.113802
2011-01-20 09:51:20 51°18.692 2°51.149 5.8572 3.183432 31.979239 0.113802
2011-01-20 09:52:20 51°18.868 2°50.993 5.7945 3.174897 31.934637 0.287922
2011-01-20 09:53:20 51°19.045 2°50.838 5.7561 3.16573 31.882888 0.287922
2011-01-20 09:54:20 51°19.219 2°50.68 5.7197 3.153824 31.802886 0.113802
2011-01-20 09:55:20 51°19.401 2°50.542 5.7377 3.151822 31.798411 0.18345
2011-01-20 09:56:20 51°19.579 2°50.405 5.8486 3.180167 32.070875 0.253098
2011-01-20 09:57:20 51°19.759 2°50.261 5.8957 3.216943 32.407441 0.218274
2011-01-20 09:58:20 51°19.937 2°50.11 5.9149 3.236228 32.578786 0.218274
2011-01-20 09:59:20 51°20.116 2°49.957 5.9217 3.244554 32.660873 0.218274
2011-01-20 10:00:20 51°20.292 2°49.8 5.9021 3.256673 32.787771 0.322746
2011-01-20 10:01:20 51°20.47 2°49.649 5.8609 3.253617 32.778659 0.218274
2011-01-20 10:02:20 51°20.652 2°49.502 5.8434 3.250772 32.781072 0.35757
2011-01-20 10:03:20 51°20.835 2°49.36 5.8402 3.253934 32.831455 0.253098
2011-01-20 10:04:20 51°21.015 2°49.224 5.8393 3.268794 33.000207 0.253098
2011-01-20 10:05:20 51°21.193 2°49.084 5.8295 3.280598 33.145856 0.322746
2011-01-20 10:06:20 51°21.373 2°48.941 5.8232 3.28513 33.199167 0.253098
2011-01-20 10:07:20 51°21.554 2°48.798 5.8257 3.288502 33.239503 0.322746
2011-01-20 10:08:20 51°21.734 2°48.659 5.8556 3.29841 33.341217 0.287922
2011-01-20 10:09:20 51°21.918 2°48.528 5.8732 3.313165 33.487053 0.322746
2011-01-20 10:10:20 51°22.102 2°48.389 5.8936 3.322967 33.574734 0.287922
2011-01-20 10:11:20 51°22.283 2°48.252 5.8643 3.332769 33.674344 0.287922
2011-01-20 10:12:20 51°22.459 2°48.11 5.8376 3.327394 33.642343 0.392394
2011-01-20 10:13:20 51°22.634 2°47.972 5.8035 3.324865 33.646537 0.322746
2011-01-20 10:14:20 51°22.808 2°47.833 5.7807 3.320965 33.62934 0.287922
2011-01-20 10:15:20 51°22.987 2°47.693 5.7659 3.324444 33.68561 0.253098
2011-01-20 10:16:20 51°23.17 2°47.553 5.7293 3.323811 33.700874 0.322746
2011-01-20 10:17:20 51°23.354 2°47.418 5.7135 3.322652 33.716264 0.322746
2011-01-20 10:18:20 51°23.534 2°47.28 5.6945 3.319385 33.701895 0.392394
2011-01-20 10:19:20 51°23.717 2°47.143 5.6815 3.317066 33.6913 0.392394
2011-01-20 10:20:20 51°23.899 2°47.004 5.6571 3.314642 33.676922 0.392394
2011-01-20 10:21:20 51°24.081 2°46.863 5.65 3.311059 33.658092 0.35757
2011-01-20 10:22:20 51°24.26 2°46.715 5.6459 3.310427 33.656138 0.35757
2011-01-20 10:23:20 51°24.44 2°46.581 5.6711 3.312008 33.677422 0.322746
2011-01-20 10:24:20 51°24.624 2°46.444 5.6992 3.323391 33.782462 0.392394
2011-01-20 10:25:20 51°24.805 2°46.308 5.7296 3.33372 33.866005 0.322746
2011-01-20 10:26:20 51°24.988 2°46.174 5.7253 3.339517 33.912261 0.35757
2011-01-20 10:27:20 51°25.172 2°46.06 5.7141 3.34036 33.924367 0.287922
2011-01-20 10:28:20 51°25.366 2°45.986 5.7091 3.341309 33.944611 0.287922
2011-01-20 10:29:20 51°25.556 2°45.955 5.7232 3.342573 33.95887 0.148626
2011-01-20 10:30:20 51°25.708 2°46.122 5.7251 3.347527 33.998197 0.35757
2011-01-20 10:31:20 51°25.813 2°46.391 5.7126 3.347949 34.016872 0.322746
2011-01-20 10:32:20 51°25.921 2°46.662 5.6945 3.346895 34.016303 0.287922
2011-01-20 10:33:20 51°26.027 2°46.933 5.6891 3.345314 34.008047 0.253098
2011-01-20 10:34:20 51°26.129 2°47.206 5.6868 3.341414 33.977974 0.18345
2011-01-20 10:35:20 51°26.231 2°47.48 5.679 3.339939 33.961323 0.253098
2011-01-20 10:36:20 51°26.335 2°47.756 5.6823 3.337725 33.944175 0.253098
2011-01-20 10:37:20 51°26.438 2°48.028 5.6763 3.33625 33.926654 0.113802
2011-01-20 10:38:20 51°26.538 2°48.302 5.6684 3.334774 33.916956 0.218274
2011-01-20 10:39:20 51°26.64 2°48.573 5.6619 3.331718 33.890279 0.078977
2011-01-20 10:40:20 51°26.75 2°48.841 5.6607 3.32961 33.87083 0.18345
2011-01-20 10:41:20 51°26.859 2°49.109 5.6583 3.327923 33.850928 0.218274
2011-01-20 10:42:20 51°26.969 2°49.381 5.6505 3.325921 33.833532 0.148626
2011-01-20 10:43:20 51°27.078 2°49.649 5.6517 3.32434 33.819158 0.18345
2011-01-20 10:44:20 51°27.185 2°49.922 5.6427 3.324234 33.817101 0.078977
2011-01-20 10:45:20 51°27.294 2°50.193 5.6498 3.322969 33.807161 0.113802
2011-01-20 10:46:20 51°27.401 2°50.465 5.6542 3.324023 33.819926 0.148626
2011-01-20 10:47:20 51°27.507 2°50.737 5.6582 3.325815 33.83321 0.044153
2011-01-20 10:48:20 51°27.616 2°51.011 5.662 3.327502 33.849641 0.113802
2011-01-20 10:49:20 51°27.723 2°51.288 5.6707 3.328134 33.854175 0.148626
2011-01-20 10:50:20 51°27.829 2°51.563 5.6719 3.32845 33.850801 0.009329
2011-01-20 10:51:20 51°27.934 2°51.836 5.6771 3.331401 33.878894 -0.025495
2011-01-20 10:52:20 51°28.045 2°52.114 5.6824 3.33235 33.885256 0.113802
2011-01-20 10:53:20 51°28.154 2°52.394 5.6841 3.333825 33.894957 0.078977
2011-01-20 10:54:20 51°28.266 2°52.668 5.6832 3.334036 33.898204 0.078977
2011-01-20 10:55:20 51°28.377 2°52.933 5.5555 3.335406 33.915401 0.113802
2011-01-20 10:56:20 51°28.477 2°53.202 5.4724 3.294829 33.597448 0.113802
2011-01-20 10:57:20 51°28.578 2°53.473 5.4947 3.278494 33.476526 -0.025495
2011-01-20 10:58:20 51°28.676 2°53.743 5.5381 3.287347 33.550828 0.009329
2011-01-20 10:59:20 51°28.774 2°54.015 5.5558 3.299888 33.651203 0.044153
2011-01-20 11:00:20 51°28.876 2°54.289 5.5843 3.304736 33.688708 0.044153
2011-01-20 11:01:20 51°28.996 2°54.546 5.5823 3.312641 33.750331 -0.129967
2011-01-20 11:02:20 51°29.116 2°54.795 5.5193 3.30579 33.685033 -0.095143
2011-01-20 11:03:20 51°29.233 2°55.048 5.4937 3.287557 33.542843 -0.025495
2011-01-20 11:04:20 51°29.348 2°55.305 5.4883 3.279758 33.472721 -0.095143
2011-01-20 11:05:20 51°29.45 2°55.578 5.4861 3.279653 33.473253 -0.025495
2011-01-20 11:06:20 51°29.556 2°55.851 5.4977 3.278915 33.470943 -0.025495
2011-01-20 11:07:20 51°29.659 2°56.123 5.4969 3.279442 33.470868 -0.095143
2011-01-20 11:08:20 51°29.762 2°56.402 5.5108 3.280601 33.478811 -0.060319
2011-01-20 11:09:20 51°29.866 2°56.682 5.5162 3.286187 33.528205 -0.060319
2011-01-20 11:10:20 51°29.971 2°56.961 5.5265 3.2884 33.548927 -0.025495
2011-01-20 11:11:20 51°30.076 2°57.242 5.5283 3.290719 33.565653 -0.199615
2011-01-20 11:12:20 51°30.176 2°57.524 5.5335 3.291457 33.573134 -0.129967
2011-01-20 11:13:20 51°30.279 2°57.808 5.5394 3.291035 33.565773 -0.095143
2011-01-20 11:14:20 51°30.385 2°58.096 5.5465 3.29367 33.585202 -0.164791
2011-01-20 11:15:20 51°30.491 2°58.389 5.5395 3.297886 33.626824 -0.095143
2011-01-20 11:16:20 51°30.599 2°58.684 5.5331 3.297253 33.626595 -0.164791
2011-01-20 11:17:20 51°30.711 2°58.975 5.5371 3.296832 33.627884 -0.199615
2011-01-20 11:18:20 51°30.822 2°59.265 5.524 3.294302 33.601001 -0.129967
2011-01-20 11:19:20 51°30.936 2°59.554 5.5197 3.292932 33.59069 -0.164791
2011-01-20 11:20:20 51°31.049 2°59.845 5.493 3.291352 33.585777 -0.060319
2011-01-20 11:21:20 51°31.167 3°0.135 5.4845 3.286609 33.553717 -0.199615
2011-01-20 11:22:20 51°31.278 3°0.427 5.4641 3.284817 33.541214 -0.164791
2011-01-20 11:23:20 51°31.39 3°0.719 5.442 3.283447 33.545592 -0.164791
2011-01-20 11:24:20 51°31.513 3°1.006 5.4302 3.27997 33.526085 -0.199615
2011-01-20 11:25:20 51°31.636 3°1.289 5.4071 3.276913 33.504419 -0.199615
2011-01-20 11:26:20 51°31.761 3°1.576 5.3808 3.275122 33.510936 -0.199615
2011-01-20 11:27:20 51°31.875 3°1.877 5.3673 3.272066 33.497042 -0.199615
2011-01-20 11:28:20 51°31.986 3°2.183 5.3556 3.269642 33.485985 -0.199615
2011-01-20 11:29:20 51°32.1 3°2.49 5.3445 3.268483 33.481486 -0.199615
2011-01-20 11:30:20 51°32.212 3°2.797 5.3315 3.266691 33.470668 -0.199615
2011-01-20 11:31:20 51°32.327 3°3.101 5.3183 3.264795 33.471653 -0.234439
2011-01-20 11:32:20 51°32.443 3°3.394 5.3159 3.262792 33.454095 -0.199615
2011-01-20 11:33:20 51°32.612 3°3.587 5.3038 3.261949 33.452313 -0.234439
2011-01-20 11:34:20 51°32.791 3°3.489 5.3183 3.26079 33.451273 -0.269263
2011-01-20 11:35:20 51°32.921 3°3.26 5.3222 3.263635 33.455876 -0.234439
2011-01-20 11:36:20 51°33.057 3°3.041 5.3069 3.264162 33.463599 -0.234439
2011-01-20 11:37:20 51°33.194 3°2.823 5.2932 3.261738 33.441249 -0.199615
2011-01-20 11:38:20 51°33.335 3°2.602 5.2606 3.257944 33.417181 -0.164791
2011-01-20 11:39:20 51°33.441 3°2.348 5.2322 3.25394 33.409766 -0.129967
2011-01-20 11:40:20 51°33.353 3°2.065 5.2433 3.252781 33.423472 -0.164791
2011-01-20 11:41:20 51°33.244 3°1.785 5.2619 3.256153 33.43843 -0.164791
2011-01-20 11:42:20 51°33.136 3°1.504 5.2676 3.257102 33.442281 -0.164791
2011-01-20 11:43:20 51°33.033 3°1.224 5.2667 3.258366 33.44973 -0.199615
2011-01-20 11:44:20 51°32.93 3°0.943 5.3292 3.261212 33.476034 -0.164791
2011-01-20 11:45:20 51°32.82 3°0.67 5.319 3.266376 33.51133 -0.199615
2011-01-20 11:46:20 51°32.7 3°0.407 5.3376 3.271961 33.556603 -0.164791
2011-01-20 11:47:20 51°32.576 3°0.148 5.3859 3.27702 33.586284 -0.199615
2011-01-20 11:48:20 51°32.457 2°59.885 5.3983 3.283765 33.632475 -0.199615
2011-01-20 11:49:20 51°32.337 2°59.626 5.4387 3.290404 33.680023 -0.234439
2011-01-20 11:50:20 51°32.226 2°59.354 5.4813 3.29873 33.729232 -0.234439
2011-01-20 11:51:20 51°32.12 2°59.081 5.5247 3.30558 33.772947 -0.234439
2011-01-20 11:52:20 51°32.008 2°58.814 5.5567 3.311798 33.812922 -0.234439
2011-01-20 11:53:20 51°31.901 2°58.544 5.5717 3.315698 33.83618 -0.234439
2011-01-20 11:54:20 51°31.791 2°58.273 5.6009 3.320968 33.8636 -0.304087
2011-01-20 11:55:20 51°31.679 2°58.008 5.6382 3.327713 33.888517 -0.269263
2011-01-20 11:56:20 51°31.567 2°57.739 5.6678 3.333193 33.934774 -0.269263
2011-01-20 11:57:20 51°31.461 2°57.468 5.7285 3.340044 33.973827 -0.199615
2011-01-20 11:58:20 51°31.349 2°57.205 5.7739 3.350162 34.035736 -0.269263
2011-01-20 11:59:20 51°31.249 2°56.942 5.8109 3.359859 34.091894 -0.269263
2011-01-20 12:00:20 51°31.152 2°56.674 5.8105 3.364918 34.121865 -0.304087
2011-01-20 12:01:20 51°31.057 2°56.407 5.8134 3.36671 34.12897 -0.304087
2011-01-20 12:02:20 51°30.956 2°56.144 5.8219 3.367237 34.144483 -0.269263
2011-01-20 12:03:20 51°30.858 2°55.877 5.8273 3.36924 34.159182 -0.269263
2011-01-20 12:04:20 51°30.761 2°55.61 5.8167 3.370189 34.165501 -0.304087
2011-01-20 12:05:20 51°30.663 2°55.342 5.8002 3.368502 34.153492 -0.304087
2011-01-20 12:06:20 51°30.564 2°55.073 5.8009 3.366078 34.140144 -0.234439
2011-01-20 12:07:20 51°30.462 2°54.809 5.8227 3.365446 34.137381 -0.234439
2011-01-20 12:08:20 51°30.362 2°54.544 5.8417 3.369135 34.155382 -0.234439
2011-01-20 12:09:20 51°30.264 2°54.283 5.8634 3.374089 34.184979 -0.234439
2011-01-20 12:10:20 51°30.162 2°54.019 5.8705 3.37704 34.198129 -0.234439
2011-01-20 12:11:20 51°30.067 2°53.756 5.8795 3.378305 34.209736 -0.234439
2011-01-20 12:12:20 51°30.031 2°53.473 5.8973 3.379569 34.212628 -0.269263
2011-01-20 12:13:20 51°30.189 2°53.291 5.8712 3.380202 34.199707 -0.234439
2011-01-20 12:14:20 51°30.372 2°53.144 5.8467 3.377356 34.196457 -0.234439
2011-01-20 12:15:20 51°30.558 2°52.997 5.8229 3.373351 34.181036 -0.199615
2011-01-20 12:16:20 51°30.74 2°52.84 5.8038 3.369978 34.163129 -0.234439
2011-01-20 12:17:20 51°30.916 2°52.666 5.7988 3.367659 34.150972 -0.234439
2011-01-20 12:18:20 51°31.091 2°52.496 5.7887 3.3665 34.142277 -0.199615
2011-01-20 12:19:20 51°31.29 2°52.43 5.7875 3.365551 34.142055 -0.234439
2011-01-20 12:20:20 51°31.437 2°52.699 5.7695 3.364497 34.130185 -0.199615
2011-01-20 12:21:20 51°31.551 2°53.026 5.773 3.361757 34.122851 -0.234439
2011-01-20 12:22:20 51°31.65 2°53.361 5.7441 3.360913 34.118581 -0.234439
2011-01-20 12:23:20 51°31.767 2°53.68 5.7348 3.355854 34.087712 -0.269263
2011-01-20 12:24:20 51°31.878 2°54.013 5.708 3.353114 34.072503 -0.269263
2011-01-20 12:25:19 51°31.981 2°54.345 5.6805 3.348582 34.049273 -0.269263
2011-01-20 12:26:20 51°32.088 2°54.687 5.6826 3.344893 34.025074 -0.269263
2011-01-20 12:27:20 51°32.18 2°55.037 5.6811 3.343312 34.011584 -0.269263
2011-01-20 12:28:20 51°32.264 2°55.385 5.6584 3.342785 34.011736 -0.269263
2011-01-20 12:29:20 51°32.355 2°55.731 5.6378 3.34015 33.995927 -0.269263
2011-01-20 12:30:20 51°32.487 2°56.037 5.6214 3.335407 33.970239 -0.269263
2011-01-20 12:31:20 51°32.638 2°56.307 5.6024 3.332456 33.949088 -0.269263
2011-01-20 12:32:20 51°32.835 2°56.46 5.5908 3.328978 33.927196 -0.269263
2011-01-20 12:33:20 51°32.999 2°56.397 5.566 3.326238 33.911891 -0.269263
2011-01-20 12:34:20 51°33.056 2°56.239 5.5683 3.323708 33.898962 -0.269263
2011-01-20 12:35:20 51°33.106 2°56.138 5.5646 3.323497 33.893091 -0.234439
2011-01-20 12:36:20 51°33.134 2°56.12 5.5663 3.323919 33.900476 -0.234439
2011-01-20 12:37:20 51°33.151 2°56.125 5.5742 3.324867 33.908594 -0.234439
2011-01-20 12:38:20 51°33.162 2°56.139 5.5775 3.326132 33.916802 -0.234439
2011-01-20 12:39:20 51°33.168 2°56.157 5.5833 3.326448 33.918635 -0.234439
2011-01-20 12:40:20 51°33.173 2°56.176 5.584 3.327081 33.920558 -0.234439
2011-01-20 12:41:20 51°33.176 2°56.199 5.59 3.327081 33.922302 -0.269263
2011-01-20 12:42:19 51°33.177 2°56.222 5.583 3.327608 33.923904 -0.234439
2011-01-20 12:43:20 51°33.18 2°56.246 5.584 3.327608 33.92216 -0.234439
2011-01-20 12:44:20 51°33.183 2°56.271 5.5882 3.327608 33.923904 -0.234439
2011-01-20 12:45:19 51°33.186 2°56.293 5.5912 3.327608 33.921288 -0.234439
2011-01-20 12:46:20 51°33.19 2°56.315 5.5858 3.32824 33.925826 -0.269263
2011-01-20 12:47:20 51°33.195 2°56.338 5.5817 3.327924 33.923993 -0.269263
2011-01-20 12:48:20 51°33.199 2°56.361 5.5843 3.328029 33.925185 -0.269263
2011-01-20 12:49:19 51°33.203 2°56.386 5.5888 3.327819 33.925416 -0.234439
2011-01-20 12:50:20 51°33.207 2°56.409 5.5906 3.327819 33.924544 -0.269263
2011-01-20 12:51:20 51°33.21 2°56.432 5.593 3.327924 33.923993 -0.269263
2011-01-20 12:52:20 51°33.212 2°56.455 5.5869 3.328345 33.924402 -0.234439
2011-01-20 12:53:20 51°33.216 2°56.476 5.5877 3.32824 33.924954 -0.269263
2011-01-20 12:54:20 51°33.222 2°56.493 5.5893 3.327819 33.921057 -0.269263
2011-01-20 12:55:20 51°33.228 2°56.512 5.5865 3.327502 33.91661 -0.269263
2011-01-20 12:56:20 51°33.234 2°56.532 5.5843 3.326975 33.915879 -0.234439
2011-01-20 12:57:20 51°33.239 2°56.55 5.5822 3.326132 33.908956 -0.269263
2011-01-20 12:58:20 51°33.244 2°56.57 5.5818 3.326132 33.912442 -0.234439
2011-01-20 12:59:20 51°33.249 2°56.588 5.5824 3.326132 33.912442 -0.234439
2011-01-20 13:00:20 51°33.255 2°56.606 5.5822 3.326238 33.908405 -0.234439
2011-01-20 13:01:20 51°33.262 2°56.622 5.5773 3.326554 33.91111 -0.304087
2011-01-20 13:02:20 51°33.272 2°56.615 5.597 3.326343 33.912212 -0.269263
2011-01-20 13:03:20 51°33.256 2°56.551 5.5891 3.32687 33.913815 -0.234439
2011-01-20 13:04:20 51°33.191 2°56.444 5.597 3.327502 33.920968 -0.234439
2011-01-20 13:05:20 51°33.126 2°56.318 5.6054 3.328872 33.930363 -0.234439
2011-01-20 13:06:20 51°33.083 2°56.212 5.6147 3.331297 33.94557 -0.234439
2011-01-20 13:07:19 51°33.068 2°56.115 5.6182 3.333194 33.960044 -0.234439
2011-01-20 13:08:20 51°33.07 2°56.066 5.6256 3.333826 33.958474 -0.269263
2011-01-20 13:09:20 51°33.081 2°56.048 5.6222 3.334248 33.962367 -0.269263
2011-01-20 13:10:20 51°33.091 2°56.05 5.6269 3.334458 33.963878 -0.304087
2011-01-20 13:11:20 51°33.1 2°56.066 5.6237 3.335196 33.968729 -0.269263
2011-01-20 13:12:20 51°33.109 2°56.095 5.6252 3.334985 33.968962 -0.269263
2011-01-20 13:13:20 51°33.115 2°56.129 5.6284 3.335512 33.968815 -0.269263
2011-01-20 13:14:20 51°33.12 2°56.166 5.6218 3.335302 33.96992 -0.269263
2011-01-20 13:15:20 51°33.126 2°56.193 5.6302 3.335407 33.969368 -0.269263
2011-01-20 13:16:20 51°33.134 2°56.217 5.63 3.335407 33.966752 -0.304087
2011-01-20 13:17:20 51°33.14 2°56.24 5.6311 3.335618 33.970878 -0.269263
2011-01-20 13:18:20 51°33.147 2°56.263 5.6328 3.335618 33.972622 -0.269263
2011-01-20 13:19:20 51°33.153 2°56.288 5.6275 3.335934 33.973579 -0.269263
2011-01-20 13:20:20 51°33.159 2°56.31 5.6313 3.335618 33.974366 -0.269263
2011-01-20 13:21:20 51°33.165 2°56.334 5.6367 3.336039 33.972155 -0.269263
2011-01-20 13:22:20 51°33.171 2°56.359 5.6385 3.336777 33.976133 -0.304087
2011-01-20 13:23:20 51°33.177 2°56.383 5.6446 3.336777 33.975261 -0.269263
2011-01-20 13:24:20 51°33.183 2°56.408 5.6415 3.33741 33.976304 -0.269263
2011-01-20 13:25:20 51°33.188 2°56.433 5.6385 3.337199 33.976537 -0.269263
2011-01-20 13:26:20 51°33.196 2°56.453 5.6461 3.33762 33.982173 -0.269263
2011-01-20 13:27:19 51°33.202 2°56.448 5.6479 3.338147 33.982896 -0.269263
2011-01-20 13:28:20 51°33.199 2°56.43 5.6476 3.338569 33.981557 -0.269263
2011-01-20 13:29:20 51°33.178 2°56.401 5.6539 3.339201 33.993059 -0.269263
2011-01-20 13:30:20 51°33.159 2°56.355 5.6604 3.339728 33.994653 -0.234439
2011-01-20 13:31:20 51°33.135 2°56.305 5.6584 3.340571 33.998074 -0.269263
2011-01-20 13:32:19 51°33.107 2°56.261 5.67 3.341309 34.004663 -0.269263
2011-01-20 13:33:20 51°33.078 2°56.215 5.6701 3.342047 34.007764 -0.269263
2011-01-20 13:34:19 51°33.068 2°56.172 5.6798 3.343101 34.013562 -0.304087
2011-01-20 13:35:20 51°33.078 2°56.147 5.6813 3.344366 34.02174 -0.234439
2011-01-20 13:36:20 51°33.097 2°56.14 5.6809 3.344998 34.023648 -0.269263
2011-01-20 13:37:19 51°33.113 2°56.145 5.6769 3.344893 34.029434 -0.269263
2011-01-20 13:38:20 51°33.124 2°56.155 5.6784 3.344893 34.02769 -0.269263
2011-01-20 13:39:20 51°33.141 2°56.148 5.6819 3.345314 34.028089 -0.269263
2011-01-20 13:40:20 51°33.17 2°56.103 5.6942 3.345209 34.026028 -0.269263
2011-01-20 13:41:20 51°33.199 2°56.078 5.6809 3.345947 34.028253 -0.269263
2011-01-20 13:42:20 51°33.219 2°56.075 5.6883 3.345104 34.024838 -0.269263
2011-01-20 13:43:20 51°33.233 2°56.079 5.6797 3.345104 34.02571 -0.269263
2011-01-20 13:44:20 51°33.244 2°56.088 5.6776 3.344998 34.026264 -0.304087
2011-01-20 13:45:20 51°33.253 2°56.101 5.6861 3.344682 34.024438 -0.269263
2011-01-20 13:46:20 51°33.261 2°56.115 5.6822 3.344893 34.025074 -0.269263
2011-01-20 13:47:20 51°33.268 2°56.133 5.6889 3.345209 34.029515 -0.269263
2011-01-20 13:48:20 51°33.277 2°56.14 5.6869 3.346158 34.030632 -0.304087
2011-01-20 13:49:20 51°33.324 2°56.11 5.6916 3.346158 34.029761 -0.269263
2011-01-20 13:50:20 51°33.388 2°56.177 5.6843 3.346685 34.033093 -0.304087
2011-01-20 13:51:20 51°33.387 2°56.377 5.6807 3.345104 34.030942 -0.269263
2011-01-20 13:52:20 51°33.338 2°56.684 5.6786 3.344366 34.023484 -0.269263
2011-01-20 13:53:20 51°33.371 2°57.044 5.7014 3.344577 34.026736 -0.304087
2011-01-20 13:54:20 51°33.423 2°57.407 5.6974 3.347106 34.037852 -0.269263
2011-01-20 13:55:20 51°33.492 2°57.76 5.6786 3.346579 34.035391 -0.304087
2011-01-20 13:56:20 51°33.581 2°58.101 5.6639 3.341415 33.999751 -0.269263
2011-01-20 13:57:20 51°33.682 2°58.439 5.6593 3.338674 33.985362 -0.234439
2011-01-20 13:58:20 51°33.784 2°58.777 5.6677 3.339728 33.990294 -0.269263
2011-01-20 13:59:20 51°33.883 2°59.112 5.6794 3.340888 33.992057 -0.234439
2011-01-20 14:00:20 51°33.983 2°59.446 5.6783 3.343312 34.00984 -0.234439
2011-01-20 14:01:19 51°34.08 2°59.775 5.6488 3.340677 33.997521 -0.304087
2011-01-20 14:02:20 51°34.179 3°0.116 5.6107 3.335723 33.968582 -0.234439
2011-01-20 14:03:20 51°34.29 3°0.437 5.575 3.330243 33.933653 -0.304087
2011-01-20 14:04:20 51°34.481 3°0.574 5.5435 3.322654 33.891394 -0.234439
2011-01-20 14:05:19 51°34.647 3°0.385 5.5421 3.317595 33.853302 -0.234439
2011-01-20 14:06:20 51°34.812 3°0.154 5.544 3.31749 33.846883 -0.234439
2011-01-20 14:07:20 51°34.977 2°59.93 5.5202 3.316647 33.83821 -0.234439
2011-01-20 14:08:20 51°35.142 2°59.707 5.5144 3.314644 33.83557 -0.234439
2011-01-20 14:09:20 51°35.194 2°59.42 5.5245 3.313063 33.831604 -0.199615
2011-01-20 14:10:19 51°35.114 2°59.147 5.5467 3.317068 33.862151 -0.199615
2011-01-20 14:11:20 51°35.035 2°58.859 5.5548 3.321389 33.889283 -0.199615
2011-01-20 14:12:20 51°34.956 2°58.57 5.563 3.322443 33.89511 -0.199615
2011-01-20 14:13:19 51°34.868 2°58.301 5.5789 3.323919 33.903963 -0.199615
2011-01-20 14:14:19 51°34.769 2°58.038 5.5868 3.324867 33.907722 -0.269263
2011-01-20 14:15:20 51°34.665 2°57.771 5.5846 3.326554 33.91634 -0.234439
2011-01-20 14:16:20 51°34.565 2°57.504 5.583 3.326765 33.915238 -0.199615
2011-01-20 14:17:20 51°34.467 2°57.231 5.5915 3.328345 33.921788 -0.234439
2011-01-20 14:18:20 51°34.365 2°56.962 5.6004 3.329189 33.933067 -0.234439
2011-01-20 14:19:19 51°34.263 2°56.699 5.6185 3.33214 33.951616 -0.234439
2011-01-20 14:20:20 51°34.161 2°56.421 5.6613 3.335302 33.972536 -0.234439
2011-01-20 14:21:20 51°34.062 2°56.15 5.7235 3.342469 34.007294 -0.269263
2011-01-20 14:22:19 51°33.963 2°55.889 5.7408 3.351533 34.05903 -0.234439
2011-01-20 14:23:19 51°33.86 2°55.628 5.7572 3.355854 34.08684 -0.234439
2011-01-20 14:24:20 51°33.76 2°55.355 5.7552 3.358173 34.095544 -0.199615
2011-01-20 14:25:20 51°33.656 2°55.091 5.7556 3.358384 34.102279 -0.234439
2011-01-20 14:26:20 51°33.556 2°54.823 5.7506 3.359227 34.110911 -0.234439
2011-01-20 14:27:20 51°33.453 2°54.555 5.7448 3.359122 34.119318 -0.199615
2011-01-20 14:28:19 51°33.356 2°54.293 5.773 3.359754 34.122085 -0.199615
2011-01-20 14:29:20 51°33.253 2°54.029 5.7856 3.36007 34.130013 -0.199615
2011-01-20 14:30:19 51°33.153 2°53.773 5.7538 3.36123 34.116913 -0.199615
2011-01-20 14:31:19 51°33.054 2°53.51 5.7603 3.361651 34.138237 -0.199615
2011-01-20 14:32:20 51°32.95 2°53.239 5.7811 3.363232 34.140351 -0.234439
2011-01-20 14:33:19 51°32.85 2°52.979 5.794 3.366078 34.157583 -0.234439
2011-01-20 14:34:20 51°32.746 2°52.711 5.8179 3.367659 34.16754 -0.199615
2011-01-20 14:35:20 51°32.64 2°52.449 5.8565 3.371664 34.187342 -0.234439
2011-01-20 14:36:20 51°32.543 2°52.18 5.9001 3.37588 34.198161 -0.234439
2011-01-20 14:37:19 51°32.444 2°51.918 5.9456 3.383891 34.240282 -0.269263
2011-01-20 14:38:20 51°32.342 2°51.645 5.9928 3.389899 34.256364 -0.234439
2011-01-20 14:39:19 51°32.241 2°51.379 6.0273 3.396329 34.289323 -0.269263
2011-01-20 14:40:20 51°32.137 2°51.106 6.0698 3.400861 34.305326 -0.269263
2011-01-20 14:41:20 51°32.03 2°50.84 6.0892 3.406447 34.330501 -0.269263
2011-01-20 14:42:19 51°31.92 2°50.589 6.1185 3.409715 34.34534 -0.234439
2011-01-20 14:43:20 51°31.808 2°50.322 6.1418 3.413299 34.355017 -0.269263
2011-01-20 14:44:20 51°31.7 2°50.058 6.1684 3.417199 34.372558 -0.269263
2011-01-20 14:45:20 51°31.588 2°49.799 6.1766 3.420888 34.392935 -0.269263
2011-01-20 14:46:19 51°31.48 2°49.546 6.1869 3.422259 34.398689 -0.234439
2011-01-20 14:47:20 51°31.368 2°49.292 6.1978 3.423523 34.403264 -0.269263
2011-01-20 14:48:19 51°31.266 2°49.034 6.2111 3.424367 34.401397 -0.304087
2011-01-20 14:49:20 51°31.151 2°48.772 6.2224 3.427318 34.42045 -0.269263
2011-01-20 14:50:19 51°31.077 2°48.502 6.229 3.42774 34.417347 -0.269263
2011-01-20 14:51:19 51°31.018 2°48.226 6.2395 3.429637 34.429836 -0.269263
2011-01-20 14:52:20 51°30.86 2°48.042 6.2491 3.430164 34.427909 -0.269263
2011-01-20 14:53:20 51°30.736 2°47.806 6.2494 3.432167 34.4407 -0.269263
2011-01-20 14:54:20 51°30.611 2°47.566 6.2625 3.432272 34.43754 -0.269263
2011-01-20 14:55:20 51°30.503 2°47.304 6.2694 3.434591 34.452116 -0.234439
2011-01-20 14:56:20 51°30.398 2°47.037 6.3003 3.435013 34.451612 -0.234439
2011-01-20 14:57:20 51°30.293 2°46.764 6.2855 3.4367 34.458268 -0.234439
2011-01-20 14:58:20 51°30.181 2°46.506 6.2915 3.436067 34.452089 -0.269263
2011-01-20 14:59:19 51°30.077 2°46.244 6.2954 3.43807 34.464865 -0.234439
2011-01-20 15:00:20 51°29.981 2°45.964 6.3062 3.438913 34.464724 -0.234439
2011-01-20 15:01:20 51°29.882 2°45.693 6.3183 3.440811 34.467657 -0.234439
2011-01-20 15:02:20 51°29.781 2°45.426 6.3264 3.440916 34.46883 -0.234439
2011-01-20 15:03:20 51°29.68 2°45.153 6.3362 3.44313 34.479609 -0.234439
2011-01-20 15:04:20 51°29.581 2°44.884 6.3528 3.445133 34.494099 -0.269263
2011-01-20 15:05:20 51°29.484 2°44.611 6.3701 3.447662 34.497994 -0.269263
2011-01-20 15:06:20 51°29.383 2°44.337 6.3935 3.449349 34.503763 -0.269263
2011-01-20 15:07:20 51°29.286 2°44.06 6.421 3.452511 34.517275 -0.304087
2011-01-20 15:08:19 51°29.187 2°43.794 6.444 3.455885 34.529659 -0.269263
2011-01-20 15:09:20 51°29.086 2°43.52 6.4674 3.460207 34.549102 -0.269263
2011-01-20 15:10:20 51°28.985 2°43.251 6.4829 3.462315 34.557798 -0.269263
2011-01-20 15:11:20 51°28.886 2°42.979 6.502 3.465056 34.566591 -0.234439
2011-01-20 15:12:20 51°28.776 2°42.718 6.5111 3.466848 34.570046 -0.269263
2011-01-20 15:13:20 51°28.666 2°42.454 6.5128 3.46864 34.577815 -0.269263
2011-01-20 15:14:20 51°28.56 2°42.192 6.5113 3.468851 34.580151 -0.269263
2011-01-20 15:15:19 51°28.452 2°41.935 6.5106 3.468429 34.572026 -0.234439
2011-01-20 15:16:20 51°28.339 2°41.664 6.4828 3.466848 34.570046 -0.234439
2011-01-20 15:17:19 51°28.237 2°41.406 6.4677 3.464423 34.556988 -0.304087
2011-01-20 15:18:20 51°28.13 2°41.137 6.4584 3.461788 34.544177 -0.269263
2011-01-20 15:19:20 51°28.025 2°40.874 6.4312 3.460523 34.531876 -0.269263
2011-01-20 15:20:20 51°27.918 2°40.615 6.3965 3.455674 34.515218 -0.269263
2011-01-20 15:21:20 51°27.775 2°40.421 6.3665 3.451035 34.497422 -0.269263
2011-01-20 15:22:19 51°27.587 2°40.463 6.3485 3.445976 34.482703 -0.269263
2011-01-20 15:23:20 51°27.388 2°40.549 6.3412 3.4445 34.469754 -0.269263
2011-01-20 15:24:19 51°27.204 2°40.676 6.3387 3.443446 34.468413 -0.269263
2011-01-20 15:25:20 51°27.017 2°40.824 6.346 3.442708 34.467128 -0.269263
2011-01-20 15:26:19 51°26.828 2°40.958 6.3527 3.443235 34.465203 -0.269263
2011-01-20 15:27:20 51°26.637 2°41.102 6.3401 3.444711 34.474694 -0.304087
2011-01-20 15:28:20 51°26.472 2°41.307 6.3748 3.443235 34.47126 -0.304087
2011-01-20 15:29:20 51°26.296 2°41.483 6.2563 3.44313 34.471818 -0.269263
2011-01-20 15:30:19 51°26.124 2°41.654 6.1913 3.431429 34.42554 -0.234439
2011-01-20 15:31:20 51°25.945 2°41.837 6.1594 3.421942 34.379544 -0.234439
2011-01-20 15:32:20 51°25.769 2°42.012 6.175 3.217446 30.329747 -0.269263
2011-01-20 15:33:19 51°25.595 2°42.187 6.2299 0.291078 1.863417 -0.269263
2011-01-20 15:34:20 51°25.418 2°42.366 6.3011 0.0841 0.508308 -0.338911
2011-01-20 15:35:19 51°25.246 2°42.543 6.3448 0.069533 0.405113 -0.304087
2011-01-20 15:36:20 51°25.068 2°42.72 6.3637 0.066931 0.382831 -0.338911
2011-01-20 15:37:19 51°24.894 2°42.896 6.369 0.064122 0.371323 -0.338911
2011-01-20 15:38:20 51°24.711 2°43.065 6.3263 0.063602 0.370463 -0.338911
2011-01-20 15:39:19 51°24.534 2°43.224 6.279 0.061522 0.367294 -0.373735
2011-01-20 15:40:19 51°24.357 2°43.397 6.2395 0.060273 0.368657 -0.338911
2011-01-20 15:41:20 51°24.172 2°43.572 6.1978 0.059961 0.373889 -0.338911
2011-01-20 15:42:19 51°23.991 2°43.734 6.167 0.057777 0.366611 -0.338911
2011-01-20 15:43:20 51°23.806 2°43.913 6.1489 0.056112 0.36172 -0.338911
2011-01-20 15:44:19 51°23.628 2°44.084 6.1248 0.055072 0.360588 -0.304087
2011-01-20 15:45:20 51°23.439 2°44.248 6.1209 0.055384 0.366836 -0.338911
2011-01-20 15:46:19 51°23.257 2°44.414 6.1154 0.054448 0.3639 -0.338911
2011-01-20 15:47:20 51°23.07 2°44.577 6.1529 0.053304 0.358458 -0.338911
2011-01-20 15:48:20 51°22.885 2°44.745 6.1835 0.05268 0.355723 -0.338911
2011-01-20 15:49:19 51°22.705 2°44.906 6.1999 0.053304 0.362297 -0.304087
2011-01-20 15:50:20 51°22.518 2°45.073 6.1948 0.052888 0.362087 -0.338911
2011-01-20 15:51:19 51°22.338 2°45.242 6.153 0.05216 0.359343 -0.338911
2011-01-20 15:52:19 51°22.157 2°45.402 6.1014 0.051432 0.355433 -0.373735
2011-01-20 15:53:19 51°21.976 2°45.561 6.5999 0.05164 0.358093 -0.547855
2011-01-20 15:54:20 51°21.788 2°45.72 6.7611 0.051744 0.358841 -0.617504
2011-01-20 15:55:19 51°21.605 2°45.879 6.9233 0.05216 0.361864 -0.617504
2011-01-20 15:56:19 51°21.419 2°46.041 7.0768 0.052576 0.364825 -0.617504
2011-01-20 15:57:19 51°21.231 2°46.199 7.2296 0.053096 0.368405 -0.617504
2011-01-20 15:58:19 51°21.045 2°46.358 7.3798 0.053616 0.371755 -0.617504
2011-01-20 15:59:20 51°20.855 2°46.521 7.5429 0.054136 0.375133 -0.617504
2011-01-20 16:00:19 51°20.669 2°46.666 7.6934 0.054552 0.377858 -0.617504
2011-01-20 16:01:19 51°20.472 2°46.795 7.8234 0.054656 0.378364 -0.58268
2011-01-20 16:02:19 51°20.284 2°46.939 7.9878 0.054865 0.379616 -0.58268
2011-01-20 16:03:20 51°20.093 2°47.089 8.1399 0.054969 0.380154 -0.617504
2011-01-20 16:04:20 51°19.902 2°47.233 8.2451 0.055177 0.381396 -0.617504
2011-01-20 16:05:20 51°19.713 2°47.383 8.3839 0.055385 0.38267 -0.617504
2011-01-20 16:06:19 51°19.523 2°47.525 8.5362 0.055489 0.383147 -0.617504
2011-01-20 16:07:19 51°19.331 2°47.672 8.6791 0.055489 0.382938 -0.617504
2011-01-20 16:08:20 51°19.135 2°47.82 8.7627 0.055489 0.382704 -0.617504
2011-01-20 16:09:19 51°18.944 2°47.954 8.9049 0.055593 0.383205 -0.617504
2011-01-20 16:10:19 51°18.751 2°48.097 9.007 0.055593 0.383013 -0.617504
2011-01-20 16:11:19 51°18.556 2°48.219 9.1367 0.055489 0.382053 -0.617504
2011-01-20 16:12:19 51°18.366 2°48.352 9.2501 0.055593 0.382579 -0.617504
2011-01-20 16:13:19 51°18.176 2°48.481 9.3561 0.055489 0.381638 -0.58268
2011-01-20 16:14:19 51°17.988 2°48.627 9.4626 0.055489 0.381438 -0.617504
2011-01-20 16:15:20 51°17.801 2°48.786 9.6487 0.055489 0.381223 -0.617504
2011-01-20 16:16:19 51°17.612 2°48.924 9.6597 0.055385 0.380292 -0.617504
2011-01-20 16:17:19 51°17.423 2°49.073 9.8701 0.055489 0.380867 -0.58268
2011-01-20 16:18:19 51°17.234 2°49.231 9.8875 0.055489 0.38066 -0.617504
2011-01-20 16:19:19 51°17.046 2°49.388 9.9775 0.055385 0.379789 -0.617504
2011-01-20 16:20:19 51°16.86 2°49.534 10.0847 0.055385 0.379558 -0.58268
2011-01-20 16:21:20 51°16.665 2°49.682 10.2253 0.055385 0.379353 -0.617504
2011-01-20 16:22:19 51°16.476 2°49.824 10.2764 0.055385 0.379164 -0.58268
2011-01-20 16:23:19 51°16.291 2°49.977 10.4205 0.055385 0.379008 -0.617504
2011-01-20 16:24:19 51°16.123 2°50.171 10.4706 0.055385 0.378828 -0.617504
2011-01-20 16:25:19 51°15.975 2°50.405 10.5925 0.055385 0.37864 -0.652328
2011-01-20 16:26:20 51°15.846 2°50.676 10.6606 0.055281 0.377747 -0.617504
2011-01-20 16:27:19 51°15.752 2°50.967 10.7252 0.055385 0.378297 -0.58268
2011-01-20 16:28:20 51°15.66 2°51.273 10.874 0.055385 0.378134 -0.617504
2011-01-20 16:29:19 51°15.579 2°51.571 10.9592 0.055385 0.377938 -0.617504
2011-01-20 16:30:19 51°15.497 2°51.876 11.0981 0.055385 0.377783 -0.617504
2011-01-20 16:31:19 51°15.413 2°52.178 11.1346 0.055385 0.377596 -0.58268
2011-01-20 16:32:19 51°15.322 2°52.473 11.2035 0.055281 0.376707 -0.58268
2011-01-20 16:33:19 51°15.241 2°52.774 11.2759 0.055385 0.377215 -0.617504
2011-01-20 16:34:20 51°15.163 2°53.081 11.3948 0.055281 0.376335 -0.58268
2011-01-20 16:35:20 51°15.082 2°53.381 11.4501 0.055385 0.376899 -0.58268
2011-01-20 16:36:19 51°15.007 2°53.68 11.5069 0.055385 0.376729 -0.617504
2011-01-20 16:37:20 51°14.914 2°53.979 11.5747 0.055281 0.37581 -0.617504
2011-01-20 16:38:19 51°14.813 2°54.257 11.7021 0.055281 0.375657 -0.58268
2011-01-20 16:39:20 51°14.701 2°54.538 11.7232 0.055281 0.375496 -0.58268
2011-01-20 16:40:20 51°14.594 2°54.815 11.7571 0.055385 0.376043 -0.58268
2011-01-20 16:41:20 51°14.457 2°55.057 11.9201 0.055281 0.375199 -0.617504
2011-01-20 16:42:20 51°14.295 2°55.252 11.934 0.055385 0.375721 -0.617504
2011-01-20 16:43:20 51°14.168 2°55.379 12.0098 0.055385 0.375585 -0.58268
2011-01-20 16:44:20 51°14.044 2°55.472 12.0376 0.055385 0.375424 -0.617504
2011-01-20 16:45:19 51°13.935 2°55.553 12.0795 0.055385 0.375264 -0.617504